sensor_id;sensor_type;location;lat;lon;timestamp;P1;durP1;ratioP1;P2;durP2;ratioP2
73938;SDS011;62291;47.554;8.504;2022-10-31T00:01:35;93.55;;;38.10;;
73938;SDS011;62291;47.554;8.504;2022-10-31T00:04:02;71.28;;;37.88;;
73938;SDS011;62291;47.554;8.504;2022-10-31T00:06:30;59.53;;;33.63;;
73938;SDS011;62291;47.554;8.504;2022-10-31T00:09:00;77.97;;;36.72;;
73938;SDS011;62291;47.554;8.504;2022-10-31T00:11:27;88.95;;;39.05;;
73938;SDS011;62291;47.554;8.504;2022-10-31T00:13:53;60.33;;;33.50;;
73938;SDS011;62291;47.554;8.504;2022-10-31T00:16:20;47.78;;;30.08;;
73938;SDS011;62291;47.554;8.504;2022-10-31T00:18:55;43.42;;;29.38;;
73938;SDS011;62291;47.554;8.504;2022-10-31T00:21:22;55.78;;;33.60;;
73938;SDS011;62291;47.554;8.504;2022-10-31T00:23:49;49.35;;;30.35;;
73938;SDS011;62291;47.554;8.504;2022-10-31T00:26:15;48.88;;;29.30;;
73938;SDS011;62291;47.554;8.504;2022-10-31T00:28:42;43.63;;;28.55;;
73938;SDS011;62291;47.554;8.504;2022-10-31T00:31:08;44.60;;;28.33;;
73938;SDS011;62291;47.554;8.504;2022-10-31T00:33:35;38.97;;;26.85;;
73938;SDS011;62291;47.554;8.504;2022-10-31T00:36:03;76.13;;;33.03;;
73938;SDS011;62291;47.554;8.504;2022-10-31T00:38:30;34.17;;;24.10;;
73938;SDS011;62291;47.554;8.504;2022-10-31T00:40:56;137.07;;;34.92;;
73938;SDS011;62291;47.554;8.504;2022-10-31T00:43:21;418.30;;;50.95;;
73938;SDS011;62291;47.554;8.504;2022-10-31T00:45:47;665.70;;;69.85;;
73938;SDS011;62291;47.554;8.504;2022-10-31T00:48:13;483.05;;;53.63;;
73938;SDS011;62291;47.554;8.504;2022-10-31T00:50:39;492.27;;;53.92;;
73938;SDS011;62291;47.554;8.504;2022-10-31T00:53:05;442.25;;;51.55;;
73938;SDS011;62291;47.554;8.504;2022-10-31T00:55:31;477.75;;;51.88;;
73938;SDS011;62291;47.554;8.504;2022-10-31T00:57:56;269.65;;;42.60;;
73938;SDS011;62291;47.554;8.504;2022-10-31T01:00:22;630.13;;;77.72;;
73938;SDS011;62291;47.554;8.504;2022-10-31T01:02:48;509.65;;;68.57;;
73938;SDS011;62291;47.554;8.504;2022-10-31T01:05:14;485.90;;;68.53;;
73938;SDS011;62291;47.554;8.504;2022-10-31T01:07:40;512.75;;;70.57;;
73938;SDS011;62291;47.554;8.504;2022-10-31T01:10:06;602.38;;;73.78;;
73938;SDS011;62291;47.554;8.504;2022-10-31T01:12:39;450.67;;;59.35;;
73938;SDS011;62291;47.554;8.504;2022-10-31T01:15:07;354.33;;;57.35;;
73938;SDS011;62291;47.554;8.504;2022-10-31T01:17:34;338.90;;;58.17;;
73938;SDS011;62291;47.554;8.504;2022-10-31T01:20:00;218.82;;;54.80;;
73938;SDS011;62291;47.554;8.504;2022-10-31T01:22:25;298.02;;;56.05;;
73938;SDS011;62291;47.554;8.504;2022-10-31T01:24:51;388.25;;;61.00;;
73938;SDS011;62291;47.554;8.504;2022-10-31T01:27:17;172.00;;;38.67;;
73938;SDS011;62291;47.554;8.504;2022-10-31T01:29:42;254.07;;;56.00;;
73938;SDS011;62291;47.554;8.504;2022-10-31T01:32:08;270.85;;;55.78;;
73938;SDS011;62291;47.554;8.504;2022-10-31T01:34:34;291.20;;;59.33;;
73938;SDS011;62291;47.554;8.504;2022-10-31T01:37:00;289.40;;;57.28;;
73938;SDS011;62291;47.554;8.504;2022-10-31T01:39:25;329.08;;;59.20;;
73938;SDS011;62291;47.554;8.504;2022-10-31T01:41:52;250.73;;;45.25;;
73938;SDS011;62291;47.554;8.504;2022-10-31T01:46:47;284.65;;;58.42;;
73938;SDS011;62291;47.554;8.504;2022-10-31T01:52:01;223.88;;;49.80;;
73938;SDS011;62291;47.554;8.504;2022-10-31T01:54:33;286.02;;;59.15;;
73938;SDS011;62291;47.554;8.504;2022-10-31T01:57:02;255.52;;;58.70;;
73938;SDS011;62291;47.554;8.504;2022-10-31T01:59:30;316.25;;;61.40;;
73938;SDS011;62291;47.554;8.504;2022-10-31T02:01:59;272.83;;;57.05;;
73938;SDS011;62291;47.554;8.504;2022-10-31T02:04:24;311.02;;;60.03;;
73938;SDS011;62291;47.554;8.504;2022-10-31T02:06:53;325.60;;;51.15;;
73938;SDS011;62291;47.554;8.504;2022-10-31T02:09:22;339.17;;;59.80;;
73938;SDS011;62291;47.554;8.504;2022-10-31T02:11:51;292.60;;;62.80;;
73938;SDS011;62291;47.554;8.504;2022-10-31T02:14:20;290.70;;;61.60;;
73938;SDS011;62291;47.554;8.504;2022-10-31T02:16:48;261.33;;;57.00;;
73938;SDS011;62291;47.554;8.504;2022-10-31T02:19:16;248.55;;;56.22;;
73938;SDS011;62291;47.554;8.504;2022-10-31T02:30:25;193.07;;;45.97;;
73938;SDS011;62291;47.554;8.504;2022-10-31T02:36:16;222.32;;;46.17;;
73938;SDS011;62291;47.554;8.504;2022-10-31T02:38:53;164.95;;;44.85;;
73938;SDS011;62291;47.554;8.504;2022-10-31T02:42:03;417.60;;;63.67;;
73938;SDS011;62291;47.554;8.504;2022-10-31T02:44:37;422.45;;;66.72;;
73938;SDS011;62291;47.554;8.504;2022-10-31T02:47:08;241.82;;;53.47;;
73938;SDS011;62291;47.554;8.504;2022-10-31T02:52:30;265.08;;;50.80;;
73938;SDS011;62291;47.554;8.504;2022-10-31T02:54:57;428.70;;;60.00;;
73938;SDS011;62291;47.554;8.504;2022-10-31T02:57:24;151.50;;;40.67;;
73938;SDS011;62291;47.554;8.504;2022-10-31T02:59:54;272.45;;;46.15;;
73938;SDS011;62291;47.554;8.504;2022-10-31T03:02:42;353.90;;;53.38;;
73938;SDS011;62291;47.554;8.504;2022-10-31T03:08:06;267.75;;;44.33;;
73938;SDS011;62291;47.554;8.504;2022-10-31T03:10:48;366.48;;;56.30;;
73938;SDS011;62291;47.554;8.504;2022-10-31T03:15:57;361.73;;;55.60;;
73938;SDS011;62291;47.554;8.504;2022-10-31T03:19:04;571.90;;;67.80;;
73938;SDS011;62291;47.554;8.504;2022-10-31T03:21:35;563.25;;;62.88;;
73938;SDS011;62291;47.554;8.504;2022-10-31T03:24:09;830.10;;;81.97;;
73938;SDS011;62291;47.554;8.504;2022-10-31T03:26:36;801.17;;;80.82;;
73938;SDS011;62291;47.554;8.504;2022-10-31T03:29:06;744.85;;;79.90;;
73938;SDS011;62291;47.554;8.504;2022-10-31T03:31:54;563.30;;;69.03;;
73938;SDS011;62291;47.554;8.504;2022-10-31T03:34:23;603.83;;;71.63;;
73938;SDS011;62291;47.554;8.504;2022-10-31T03:36:50;465.75;;;60.17;;
73938;SDS011;62291;47.554;8.504;2022-10-31T03:39:19;378.25;;;55.50;;
73938;SDS011;62291;47.554;8.504;2022-10-31T03:41:48;349.75;;;50.25;;
73938;SDS011;62291;47.554;8.504;2022-10-31T03:44:20;435.90;;;60.88;;
73938;SDS011;62291;47.554;8.504;2022-10-31T03:46:48;489.75;;;61.72;;
73938;SDS011;62291;47.554;8.504;2022-10-31T03:49:14;549.25;;;68.75;;
73938;SDS011;62291;47.554;8.504;2022-10-31T03:54:35;610.42;;;74.53;;
73938;SDS011;62291;47.554;8.504;2022-10-31T04:00:12;655.05;;;77.47;;
73938;SDS011;62291;47.554;8.504;2022-10-31T04:02:45;506.98;;;62.22;;
73938;SDS011;62291;47.554;8.504;2022-10-31T04:05:30;563.95;;;66.65;;
73938;SDS011;62291;47.554;8.504;2022-10-31T04:07:57;788.10;;;84.50;;
73938;SDS011;62291;47.554;8.504;2022-10-31T04:10:25;788.55;;;82.93;;
73938;SDS011;62291;47.554;8.504;2022-10-31T04:12:54;596.47;;;65.28;;
73938;SDS011;62291;47.554;8.504;2022-10-31T04:15:25;346.95;;;54.78;;
73938;SDS011;62291;47.554;8.504;2022-10-31T04:17:53;800.72;;;84.20;;
73938;SDS011;62291;47.554;8.504;2022-10-31T04:20:29;446.20;;;66.07;;
73938;SDS011;62291;47.554;8.504;2022-10-31T04:22:56;405.02;;;69.15;;
73938;SDS011;62291;47.554;8.504;2022-10-31T04:25:22;435.58;;;65.90;;
73938;SDS011;62291;47.554;8.504;2022-10-31T04:27:48;440.00;;;70.90;;
73938;SDS011;62291;47.554;8.504;2022-10-31T04:30:13;526.25;;;75.60;;
73938;SDS011;62291;47.554;8.504;2022-10-31T04:32:39;331.02;;;58.40;;
73938;SDS011;62291;47.554;8.504;2022-10-31T04:35:05;536.45;;;68.68;;
73938;SDS011;62291;47.554;8.504;2022-10-31T04:37:31;493.35;;;71.90;;
73938;SDS011;62291;47.554;8.504;2022-10-31T04:39:56;505.25;;;69.07;;
73938;SDS011;62291;47.554;8.504;2022-10-31T04:42:22;596.13;;;82.45;;
73938;SDS011;62291;47.554;8.504;2022-10-31T04:44:48;540.85;;;70.30;;
73938;SDS011;62291;47.554;8.504;2022-10-31T04:47:14;515.88;;;79.70;;
73938;SDS011;62291;47.554;8.504;2022-10-31T04:49:39;561.33;;;61.83;;
73938;SDS011;62291;47.554;8.504;2022-10-31T04:52:05;544.35;;;89.15;;
73938;SDS011;62291;47.554;8.504;2022-10-31T04:54:32;695.97;;;84.57;;
73938;SDS011;62291;47.554;8.504;2022-10-31T04:56:57;571.10;;;76.57;;
73938;SDS011;62291;47.554;8.504;2022-10-31T04:59:23;643.15;;;77.93;;
73938;SDS011;62291;47.554;8.504;2022-10-31T05:01:49;644.25;;;86.40;;
73938;SDS011;62291;47.554;8.504;2022-10-31T05:04:14;926.05;;;85.55;;
73938;SDS011;62291;47.554;8.504;2022-10-31T05:06:40;755.55;;;80.00;;
73938;SDS011;62291;47.554;8.504;2022-10-31T05:09:06;429.65;;;53.15;;
73938;SDS011;62291;47.554;8.504;2022-10-31T05:11:32;580.45;;;69.72;;
73938;SDS011;62291;47.554;8.504;2022-10-31T05:13:57;912.08;;;82.20;;
73938;SDS011;62291;47.554;8.504;2022-10-31T05:16:23;463.27;;;53.08;;
73938;SDS011;62291;47.554;8.504;2022-10-31T05:18:49;631.08;;;72.10;;
73938;SDS011;62291;47.554;8.504;2022-10-31T05:21:14;620.17;;;68.55;;
73938;SDS011;62291;47.554;8.504;2022-10-31T05:23:40;489.63;;;61.05;;
73938;SDS011;62291;47.554;8.504;2022-10-31T05:26:06;403.00;;;54.72;;
73938;SDS011;62291;47.554;8.504;2022-10-31T05:28:31;888.03;;;80.47;;
73938;SDS011;62291;47.554;8.504;2022-10-31T05:30:57;721.38;;;73.78;;
73938;SDS011;62291;47.554;8.504;2022-10-31T05:33:23;931.60;;;81.05;;
73938;SDS011;62291;47.554;8.504;2022-10-31T05:35:48;754.58;;;71.25;;
73938;SDS011;62291;47.554;8.504;2022-10-31T05:38:14;492.95;;;56.50;;
73938;SDS011;62291;47.554;8.504;2022-10-31T05:40:40;696.42;;;71.05;;
73938;SDS011;62291;47.554;8.504;2022-10-31T05:43:05;488.70;;;56.20;;
73938;SDS011;62291;47.554;8.504;2022-10-31T05:45:31;420.10;;;54.20;;
73938;SDS011;62291;47.554;8.504;2022-10-31T05:47:58;584.42;;;66.68;;
73938;SDS011;62291;47.554;8.504;2022-10-31T05:50:24;613.92;;;67.07;;
73938;SDS011;62291;47.554;8.504;2022-10-31T05:52:55;827.53;;;79.65;;
73938;SDS011;62291;47.554;8.504;2022-10-31T05:55:26;677.55;;;73.10;;
73938;SDS011;62291;47.554;8.504;2022-10-31T05:57:53;489.83;;;53.83;;
73938;SDS011;62291;47.554;8.504;2022-10-31T06:00:20;455.33;;;53.00;;
73938;SDS011;62291;47.554;8.504;2022-10-31T06:02:46;474.00;;;55.92;;
73938;SDS011;62291;47.554;8.504;2022-10-31T06:05:12;656.50;;;68.88;;
73938;SDS011;62291;47.554;8.504;2022-10-31T06:07:38;577.00;;;64.55;;
73938;SDS011;62291;47.554;8.504;2022-10-31T06:10:04;577.53;;;67.35;;
73938;SDS011;62291;47.554;8.504;2022-10-31T06:12:31;553.47;;;67.43;;
73938;SDS011;62291;47.554;8.504;2022-10-31T06:15:02;527.63;;;59.83;;
73938;SDS011;62291;47.554;8.504;2022-10-31T06:17:33;517.90;;;63.20;;
73938;SDS011;62291;47.554;8.504;2022-10-31T06:19:59;475.55;;;67.32;;
73938;SDS011;62291;47.554;8.504;2022-10-31T06:22:25;443.88;;;63.40;;
73938;SDS011;62291;47.554;8.504;2022-10-31T06:24:51;372.45;;;57.58;;
73938;SDS011;62291;47.554;8.504;2022-10-31T06:27:17;406.50;;;56.22;;
73938;SDS011;62291;47.554;8.504;2022-10-31T06:29:43;576.58;;;70.00;;
73938;SDS011;62291;47.554;8.504;2022-10-31T06:32:11;506.63;;;64.95;;
73938;SDS011;62291;47.554;8.504;2022-10-31T06:34:37;287.98;;;49.22;;
73938;SDS011;62291;47.554;8.504;2022-10-31T06:37:07;413.25;;;61.15;;
73938;SDS011;62291;47.554;8.504;2022-10-31T06:39:35;421.40;;;60.65;;
73938;SDS011;62291;47.554;8.504;2022-10-31T06:42:01;660.45;;;68.55;;
73938;SDS011;62291;47.554;8.504;2022-10-31T06:44:27;270.05;;;49.60;;
73938;SDS011;62291;47.554;8.504;2022-10-31T06:46:53;269.73;;;49.72;;
73938;SDS011;62291;47.554;8.504;2022-10-31T06:49:18;417.48;;;58.00;;
73938;SDS011;62291;47.554;8.504;2022-10-31T06:51:47;406.55;;;59.80;;
73938;SDS011;62291;47.554;8.504;2022-10-31T06:54:13;321.08;;;50.95;;
73938;SDS011;62291;47.554;8.504;2022-10-31T06:56:39;321.15;;;53.10;;
73938;SDS011;62291;47.554;8.504;2022-10-31T06:59:05;404.05;;;58.03;;
73938;SDS011;62291;47.554;8.504;2022-10-31T07:01:30;477.63;;;60.13;;
73938;SDS011;62291;47.554;8.504;2022-10-31T07:03:56;291.73;;;55.72;;
73938;SDS011;62291;47.554;8.504;2022-10-31T07:06:22;333.02;;;50.08;;
73938;SDS011;62291;47.554;8.504;2022-10-31T07:08:48;239.15;;;50.67;;
73938;SDS011;62291;47.554;8.504;2022-10-31T07:11:13;239.25;;;47.40;;
73938;SDS011;62291;47.554;8.504;2022-10-31T07:13:39;160.38;;;45.88;;
73938;SDS011;62291;47.554;8.504;2022-10-31T07:16:05;150.93;;;46.47;;
73938;SDS011;62291;47.554;8.504;2022-10-31T07:18:32;164.63;;;39.35;;
73938;SDS011;62291;47.554;8.504;2022-10-31T07:20:58;299.77;;;51.72;;
73938;SDS011;62291;47.554;8.504;2022-10-31T07:23:24;166.05;;;46.15;;
73938;SDS011;62291;47.554;8.504;2022-10-31T07:25:54;171.20;;;41.55;;
73938;SDS011;62291;47.554;8.504;2022-10-31T07:28:20;354.08;;;63.72;;
73938;SDS011;62291;47.554;8.504;2022-10-31T07:30:50;258.83;;;52.85;;
73938;SDS011;62291;47.554;8.504;2022-10-31T07:33:17;239.88;;;39.10;;
73938;SDS011;62291;47.554;8.504;2022-10-31T07:35:43;169.60;;;36.72;;
73938;SDS011;62291;47.554;8.504;2022-10-31T07:38:12;317.30;;;53.55;;
73938;SDS011;62291;47.554;8.504;2022-10-31T07:40:39;385.67;;;53.10;;
73938;SDS011;62291;47.554;8.504;2022-10-31T07:43:05;500.42;;;58.25;;
73938;SDS011;62291;47.554;8.504;2022-10-31T07:45:31;158.48;;;39.05;;
73938;SDS011;62291;47.554;8.504;2022-10-31T07:47:57;264.92;;;52.90;;
73938;SDS011;62291;47.554;8.504;2022-10-31T07:50:23;156.77;;;45.75;;
73938;SDS011;62291;47.554;8.504;2022-10-31T07:53:01;452.92;;;66.30;;
73938;SDS011;62291;47.554;8.504;2022-10-31T07:55:28;224.43;;;48.78;;
73938;SDS011;62291;47.554;8.504;2022-10-31T07:57:56;158.13;;;42.30;;
73938;SDS011;62291;47.554;8.504;2022-10-31T08:00:25;273.98;;;45.80;;
73938;SDS011;62291;47.554;8.504;2022-10-31T08:02:58;329.42;;;51.78;;
73938;SDS011;62291;47.554;8.504;2022-10-31T08:05:29;216.05;;;46.63;;
73938;SDS011;62291;47.554;8.504;2022-10-31T08:07:55;128.75;;;40.33;;
73938;SDS011;62291;47.554;8.504;2022-10-31T08:10:22;213.43;;;45.63;;
73938;SDS011;62291;47.554;8.504;2022-10-31T08:12:55;125.68;;;39.50;;
73938;SDS011;62291;47.554;8.504;2022-10-31T08:15:23;181.07;;;44.42;;
73938;SDS011;62291;47.554;8.504;2022-10-31T08:17:49;213.77;;;48.80;;
73938;SDS011;62291;47.554;8.504;2022-10-31T08:20:15;173.68;;;42.22;;
73938;SDS011;62291;47.554;8.504;2022-10-31T08:22:41;161.93;;;41.17;;
73938;SDS011;62291;47.554;8.504;2022-10-31T08:25:06;93.25;;;31.67;;
73938;SDS011;62291;47.554;8.504;2022-10-31T08:27:33;123.50;;;40.13;;
73938;SDS011;62291;47.554;8.504;2022-10-31T08:29:59;192.20;;;50.10;;
73938;SDS011;62291;47.554;8.504;2022-10-31T08:32:24;89.18;;;35.85;;
73938;SDS011;62291;47.554;8.504;2022-10-31T08:34:50;152.50;;;38.50;;
73938;SDS011;62291;47.554;8.504;2022-10-31T08:37:16;151.02;;;41.65;;
73938;SDS011;62291;47.554;8.504;2022-10-31T08:39:45;160.70;;;44.10;;
73938;SDS011;62291;47.554;8.504;2022-10-31T08:42:11;144.43;;;36.00;;
73938;SDS011;62291;47.554;8.504;2022-10-31T08:44:38;76.43;;;31.27;;
73938;SDS011;62291;47.554;8.504;2022-10-31T08:47:03;80.65;;;31.17;;
73938;SDS011;62291;47.554;8.504;2022-10-31T08:49:29;72.85;;;30.88;;
73938;SDS011;62291;47.554;8.504;2022-10-31T08:51:55;87.13;;;29.27;;
73938;SDS011;62291;47.554;8.504;2022-10-31T08:54:21;108.45;;;29.25;;
73938;SDS011;62291;47.554;8.504;2022-10-31T08:56:46;87.72;;;32.15;;
73938;SDS011;62291;47.554;8.504;2022-10-31T08:59:12;72.18;;;30.05;;
73938;SDS011;62291;47.554;8.504;2022-10-31T09:01:38;54.08;;;26.67;;
73938;SDS011;62291;47.554;8.504;2022-10-31T09:04:04;51.28;;;26.52;;
73938;SDS011;62291;47.554;8.504;2022-10-31T09:06:29;48.72;;;27.95;;
73938;SDS011;62291;47.554;8.504;2022-10-31T09:08:55;48.75;;;28.40;;
73938;SDS011;62291;47.554;8.504;2022-10-31T09:11:21;57.63;;;27.90;;
73938;SDS011;62291;47.554;8.504;2022-10-31T09:13:46;95.72;;;36.78;;
73938;SDS011;62291;47.554;8.504;2022-10-31T09:16:12;39.35;;;22.90;;
73938;SDS011;62291;47.554;8.504;2022-10-31T09:18:38;39.47;;;19.20;;
73938;SDS011;62291;47.554;8.504;2022-10-31T09:21:03;81.45;;;31.52;;
73938;SDS011;62291;47.554;8.504;2022-10-31T09:23:29;49.35;;;28.58;;
73938;SDS011;62291;47.554;8.504;2022-10-31T09:25:58;74.72;;;29.15;;
73938;SDS011;62291;47.554;8.504;2022-10-31T09:28:25;53.47;;;25.38;;
73938;SDS011;62291;47.554;8.504;2022-10-31T09:30:51;73.28;;;22.70;;
73938;SDS011;62291;47.554;8.504;2022-10-31T09:33:18;203.35;;;40.70;;
73938;SDS011;62291;47.554;8.504;2022-10-31T09:35:45;118.65;;;35.65;;
73938;SDS011;62291;47.554;8.504;2022-10-31T09:38:18;51.88;;;22.67;;
73938;SDS011;62291;47.554;8.504;2022-10-31T09:41:02;46.25;;;22.52;;
73938;SDS011;62291;47.554;8.504;2022-10-31T09:46:26;39.42;;;20.50;;
73938;SDS011;62291;47.554;8.504;2022-10-31T09:51:48;82.85;;;32.35;;
73938;SDS011;62291;47.554;8.504;2022-10-31T09:54:35;50.55;;;20.88;;
73938;SDS011;62291;47.554;8.504;2022-10-31T09:57:10;66.22;;;25.83;;
73938;SDS011;62291;47.554;8.504;2022-10-31T09:59:40;51.45;;;27.35;;
73938;SDS011;62291;47.554;8.504;2022-10-31T10:02:25;48.08;;;27.45;;
73938;SDS011;62291;47.554;8.504;2022-10-31T10:04:55;61.38;;;30.13;;
73938;SDS011;62291;47.554;8.504;2022-10-31T10:09:55;66.18;;;33.35;;
73938;SDS011;62291;47.554;8.504;2022-10-31T10:13:27;107.40;;;41.90;;
73938;SDS011;62291;47.554;8.504;2022-10-31T10:26:53;65.40;;;33.80;;
73938;SDS011;62291;47.554;8.504;2022-10-31T10:30:04;28.30;;;22.27;;
73938;SDS011;62291;47.554;8.504;2022-10-31T10:32:51;34.85;;;24.88;;
73938;SDS011;62291;47.554;8.504;2022-10-31T10:35:35;37.60;;;25.40;;
73938;SDS011;62291;47.554;8.504;2022-10-31T10:38:12;106.07;;;34.35;;
73938;SDS011;62291;47.554;8.504;2022-10-31T10:40:51;66.68;;;23.35;;
73938;SDS011;62291;47.554;8.504;2022-10-31T10:43:33;59.80;;;28.30;;
73938;SDS011;62291;47.554;8.504;2022-10-31T10:46:24;65.43;;;29.42;;
73938;SDS011;62291;47.554;8.504;2022-10-31T10:49:32;69.70;;;32.28;;
73938;SDS011;62291;47.554;8.504;2022-10-31T10:55:09;54.58;;;29.02;;
73938;SDS011;62291;47.554;8.504;2022-10-31T11:02:55;44.72;;;28.00;;
73938;SDS011;62291;47.554;8.504;2022-10-31T11:08:28;32.70;;;23.65;;
73938;SDS011;62291;47.554;8.504;2022-10-31T11:11:00;37.30;;;26.60;;
73938;SDS011;62291;47.554;8.504;2022-10-31T11:13:27;41.17;;;26.37;;
73938;SDS011;62291;47.554;8.504;2022-10-31T11:18:20;34.17;;;23.45;;
73938;SDS011;62291;47.554;8.504;2022-10-31T11:20:50;30.00;;;22.23;;
73938;SDS011;62291;47.554;8.504;2022-10-31T11:23:19;30.60;;;21.58;;
73938;SDS011;62291;47.554;8.504;2022-10-31T11:25:54;97.07;;;30.85;;
73938;SDS011;62291;47.554;8.504;2022-10-31T11:28:20;108.38;;;32.83;;
73938;SDS011;62291;47.554;8.504;2022-10-31T11:36:16;38.50;;;24.17;;
73938;SDS011;62291;47.554;8.504;2022-10-31T11:38:48;71.75;;;28.85;;
73938;SDS011;62291;47.554;8.504;2022-10-31T11:41:17;80.47;;;29.98;;
73938;SDS011;62291;47.554;8.504;2022-10-31T11:44:46;50.60;;;27.38;;
73938;SDS011;62291;47.554;8.504;2022-10-31T11:47:12;31.55;;;22.67;;
73938;SDS011;62291;47.554;8.504;2022-10-31T11:49:41;61.50;;;27.33;;
73938;SDS011;62291;47.554;8.504;2022-10-31T11:54:41;44.70;;;24.85;;
73938;SDS011;62291;47.554;8.504;2022-10-31T11:57:27;48.97;;;25.92;;
73938;SDS011;62291;47.554;8.504;2022-10-31T11:59:58;134.75;;;31.75;;
73938;SDS011;62291;47.554;8.504;2022-10-31T12:02:25;117.15;;;36.55;;
73938;SDS011;62291;47.554;8.504;2022-10-31T12:05:25;77.10;;;26.63;;
73938;SDS011;62291;47.554;8.504;2022-10-31T12:07:47;60.20;;;32.47;;
73938;SDS011;62291;47.554;8.504;2022-10-31T12:10:14;43.88;;;29.75;;
73938;SDS011;62291;47.554;8.504;2022-10-31T12:13:00;47.60;;;29.88;;
73938;SDS011;62291;47.554;8.504;2022-10-31T12:15:38;40.58;;;27.38;;
73938;SDS011;62291;47.554;8.504;2022-10-31T12:31:28;29.20;;;23.10;;
73938;SDS011;62291;47.554;8.504;2022-10-31T12:37:27;26.73;;;21.30;;
73938;SDS011;62291;47.554;8.504;2022-10-31T12:42:51;30.02;;;22.35;;
73938;SDS011;62291;47.554;8.504;2022-10-31T12:48:19;21.23;;;18.40;;
73938;SDS011;62291;47.554;8.504;2022-10-31T12:59:19;25.42;;;18.50;;
73938;SDS011;62291;47.554;8.504;2022-10-31T13:06:55;23.85;;;19.00;;
73938;SDS011;62291;47.554;8.504;2022-10-31T13:12:17;21.63;;;17.17;;
73938;SDS011;62291;47.554;8.504;2022-10-31T13:14:50;19.98;;;16.58;;
73938;SDS011;62291;47.554;8.504;2022-10-31T13:17:25;22.35;;;16.88;;
73938;SDS011;62291;47.554;8.504;2022-10-31T13:20:20;20.85;;;17.25;;
73938;SDS011;62291;47.554;8.504;2022-10-31T13:22:48;18.48;;;15.98;;
73938;SDS011;62291;47.554;8.504;2022-10-31T13:28:08;20.25;;;18.05;;
73938;SDS011;62291;47.554;8.504;2022-10-31T13:30:41;21.35;;;17.15;;
73938;SDS011;62291;47.554;8.504;2022-10-31T13:33:09;18.10;;;15.50;;
73938;SDS011;62291;47.554;8.504;2022-10-31T13:38:54;21.65;;;16.88;;
73938;SDS011;62291;47.554;8.504;2022-10-31T13:46:46;18.25;;;15.55;;
73938;SDS011;62291;47.554;8.504;2022-10-31T13:52:15;20.50;;;16.33;;
73938;SDS011;62291;47.554;8.504;2022-10-31T13:54:49;19.55;;;16.10;;
73938;SDS011;62291;47.554;8.504;2022-10-31T14:02:48;25.27;;;16.35;;
73938;SDS011;62291;47.554;8.504;2022-10-31T14:07:44;20.30;;;15.20;;
73938;SDS011;62291;47.554;8.504;2022-10-31T14:10:22;17.95;;;16.05;;
73938;SDS011;62291;47.554;8.504;2022-10-31T14:12:52;20.77;;;15.52;;
73938;SDS011;62291;47.554;8.504;2022-10-31T14:15:27;18.98;;;16.27;;
73938;SDS011;62291;47.554;8.504;2022-10-31T14:18:03;23.33;;;16.92;;
73938;SDS011;62291;47.554;8.504;2022-10-31T14:20:32;22.52;;;16.70;;
73938;SDS011;62291;47.554;8.504;2022-10-31T14:25:36;22.17;;;16.80;;
73938;SDS011;62291;47.554;8.504;2022-10-31T14:28:05;22.38;;;16.02;;
73938;SDS011;62291;47.554;8.504;2022-10-31T14:30:54;19.77;;;14.30;;
73938;SDS011;62291;47.554;8.504;2022-10-31T14:33:22;19.63;;;16.02;;
73938;SDS011;62291;47.554;8.504;2022-10-31T14:35:56;21.13;;;16.08;;
73938;SDS011;62291;47.554;8.504;2022-10-31T14:49:50;19.30;;;14.55;;
73938;SDS011;62291;47.554;8.504;2022-10-31T14:52:42;18.35;;;15.15;;
73938;SDS011;62291;47.554;8.504;2022-10-31T14:55:12;20.95;;;17.38;;
73938;SDS011;62291;47.554;8.504;2022-10-31T14:57:43;19.85;;;15.27;;
73938;SDS011;62291;47.554;8.504;2022-10-31T15:00:17;21.75;;;15.95;;
73938;SDS011;62291;47.554;8.504;2022-10-31T15:05:50;22.63;;;16.95;;
73938;SDS011;62291;47.554;8.504;2022-10-31T15:08:35;21.70;;;15.60;;
73938;SDS011;62291;47.554;8.504;2022-10-31T15:11:12;21.35;;;15.05;;
73938;SDS011;62291;47.554;8.504;2022-10-31T15:13:46;21.67;;;15.27;;
73938;SDS011;62291;47.554;8.504;2022-10-31T15:16:15;18.38;;;15.18;;
73938;SDS011;62291;47.554;8.504;2022-10-31T15:18:47;21.90;;;16.00;;
73938;SDS011;62291;47.554;8.504;2022-10-31T15:21:26;25.20;;;16.40;;
73938;SDS011;62291;47.554;8.504;2022-10-31T15:23:54;22.58;;;16.52;;
73938;SDS011;62291;47.554;8.504;2022-10-31T15:26:22;29.35;;;18.67;;
73938;SDS011;62291;47.554;8.504;2022-10-31T15:29:03;28.02;;;17.88;;
73938;SDS011;62291;47.554;8.504;2022-10-31T15:31:30;25.88;;;17.52;;
73938;SDS011;62291;47.554;8.504;2022-10-31T15:34:04;22.92;;;17.88;;
73938;SDS011;62291;47.554;8.504;2022-10-31T15:36:39;22.35;;;17.88;;
73938;SDS011;62291;47.554;8.504;2022-10-31T15:39:05;30.13;;;19.58;;
73938;SDS011;62291;47.554;8.504;2022-10-31T15:41:35;26.73;;;19.95;;
73938;SDS011;62291;47.554;8.504;2022-10-31T15:44:27;27.08;;;20.23;;
73938;SDS011;62291;47.554;8.504;2022-10-31T15:47:03;28.83;;;20.75;;
73938;SDS011;62291;47.554;8.504;2022-10-31T15:52:05;21.73;;;18.48;;
73938;SDS011;62291;47.554;8.504;2022-10-31T15:54:43;30.75;;;22.27;;
73938;SDS011;62291;47.554;8.504;2022-10-31T15:57:17;25.75;;;19.38;;
73938;SDS011;62291;47.554;8.504;2022-10-31T15:59:45;30.10;;;20.40;;
73938;SDS011;62291;47.554;8.504;2022-10-31T16:02:13;30.75;;;21.95;;
73938;SDS011;62291;47.554;8.504;2022-10-31T16:07:22;24.90;;;18.60;;
73938;SDS011;62291;47.554;8.504;2022-10-31T16:10:21;32.20;;;22.10;;
73938;SDS011;62291;47.554;8.504;2022-10-31T16:12:51;33.88;;;22.38;;
73938;SDS011;62291;47.554;8.504;2022-10-31T16:15:18;27.15;;;21.75;;
73938;SDS011;62291;47.554;8.504;2022-10-31T16:17:46;32.47;;;21.58;;
73938;SDS011;62291;47.554;8.504;2022-10-31T16:20:18;36.90;;;23.38;;
73938;SDS011;62291;47.554;8.504;2022-10-31T16:22:50;34.60;;;25.00;;
73938;SDS011;62291;47.554;8.504;2022-10-31T16:25:39;36.10;;;23.98;;
73938;SDS011;62291;47.554;8.504;2022-10-31T16:28:05;41.25;;;27.25;;
73938;SDS011;62291;47.554;8.504;2022-10-31T16:30:43;37.70;;;27.08;;
73938;SDS011;62291;47.554;8.504;2022-10-31T16:35:51;45.13;;;28.38;;
73938;SDS011;62291;47.554;8.504;2022-10-31T16:38:17;42.97;;;28.45;;
73938;SDS011;62291;47.554;8.504;2022-10-31T16:40:43;36.33;;;22.85;;
73938;SDS011;62291;47.554;8.504;2022-10-31T16:43:14;37.47;;;24.05;;
73938;SDS011;62291;47.554;8.504;2022-10-31T16:45:45;47.15;;;26.30;;
73938;SDS011;62291;47.554;8.504;2022-10-31T16:48:14;49.67;;;31.20;;
73938;SDS011;62291;47.554;8.504;2022-10-31T16:50:41;48.58;;;29.38;;
73938;SDS011;62291;47.554;8.504;2022-10-31T16:53:09;47.10;;;30.88;;
73938;SDS011;62291;47.554;8.504;2022-10-31T16:55:46;56.03;;;34.30;;
73938;SDS011;62291;47.554;8.504;2022-10-31T16:58:21;44.13;;;28.17;;
73938;SDS011;62291;47.554;8.504;2022-10-31T17:00:52;52.03;;;33.05;;
73938;SDS011;62291;47.554;8.504;2022-10-31T17:03:19;54.63;;;30.25;;
73938;SDS011;62291;47.554;8.504;2022-10-31T17:05:45;51.80;;;34.65;;
73938;SDS011;62291;47.554;8.504;2022-10-31T17:08:10;60.95;;;36.72;;
73938;SDS011;62291;47.554;8.504;2022-10-31T17:10:37;59.22;;;38.60;;